Beith, United Kingdom
Current Conditions -  °F | °C
As of 5:20 AM on Monday 22 Dec 2014 (Local Time) from EGPF Reporting Station
Light Rain Light Rain  
Wind Chill: 42°   Ceiling: 1400
Heat Index: 46°   Visibility: 6mi
Dew Point: 43°   Wind: 8mph
Humidity: 87%   Direction: 280°W
Pressure: 29.62"   Gusts: NA
Location:  55.75°N, 4.64°W
Report Text: EGPF 220520Z AUTO 28007KT 9999 -RA BKN014/// BKN026/// //////CB 08/06 Q1003
Loading
Personal Weather Stations






























Interactive Weather Map New forecast layout! Learn more

10-Day Weather Forecast

Advertisements
Track Severe Weather on mobile